CBT9 weather

Sproat Lake Tanker Base Heliport
Port Alberni, British Columbia, Canada

Public forecast

Using degrees Celsius for public forecast. Weather courtesy of forecast.io.

METAR (pilot weather report)

Closest report is Comox Airport, 25.4 nm (47.0 km) N. Retrieved 2019/07/18 03:00 UTC (47 minutes ago):

CYQQ 180300Z 36016KT 20SM FEW054 FEW075 17/11 A2981 RMK SC2AC1 SLP094

TAF (pilot weather forecast)

Forecast is more than 12 hours old.

Closest forecast is Comox Airport, 25.4 nm (47.0 km) N. Retrieved 2019/07/17 00:39 UTC (1 day ago):

TAF CYQQ 172336Z 1800/1824 14010KT P6SM FEW020 SCT050 BKN080 TEMPO 1800/1804 P6SM -SHRA BKN050 FM180400 33007KT P6SM SCT020 BKN060 FM182100 34006KT P6SM FEW015 BKN040 OVC060 RMK NXT FCST BY 180600Z